createdAt,value
2022-09-26T00:01:21.428Z,92849.80
2022-09-26T00:06:30.917Z,92844.65
2022-09-26T00:11:39.862Z,92839.32
2022-09-26T00:16:48.327Z,92841.05
2022-09-26T00:21:55.677Z,92835.87
2022-09-26T00:27:03.345Z,92835.43
2022-09-26T00:32:11.598Z,92830.50
2022-09-26T00:37:19.689Z,92816.59
2022-09-26T00:42:26.387Z,92829.40
2022-09-26T00:47:44.254Z,92836.47
2022-09-26T00:53:08.127Z,92826.62
2022-09-26T00:58:19.414Z,92815.42
2022-09-26T01:03:30.301Z,92810.84
2022-09-26T01:08:48.114Z,92805.28
2022-09-26T01:13:58.105Z,92802.48
2022-09-26T01:19:09.718Z,92805.28
2022-09-26T01:24:52.565Z,92795.97
2022-09-26T01:30:25.841Z,92792.99
2022-09-26T01:35:59.357Z,92782.98
2022-09-26T01:41:34.477Z,92781.17
2022-09-26T01:47:14.439Z,92786.02
2022-09-26T01:52:34.362Z,92795.26
2022-09-26T01:57:48.421Z,92789.80
2022-09-26T02:02:55.112Z,92795.38
2022-09-26T02:08:26.808Z,92793.05
2022-09-26T02:13:46.967Z,92786.30
2022-09-26T02:19:16.378Z,92770.81
2022-09-26T02:24:25.464Z,92769.05
2022-09-26T02:29:32.922Z,92760.07
2022-09-26T02:34:40.102Z,92753.59
2022-09-26T02:39:49.197Z,92754.20
2022-09-26T02:45:15.518Z,92755.04
2022-09-26T02:51:10.592Z,92738.62
2022-09-26T02:56:55.983Z,92735.42
2022-09-26T03:02:10.041Z,92718.70
2022-09-26T03:07:23.968Z,92718.81
2022-09-26T03:12:31.580Z,92721.48
2022-09-26T03:17:42.626Z,92737.87
2022-09-26T03:22:50.031Z,92734.12
2022-09-26T03:27:58.344Z,92722.78
2022-09-26T03:33:05.074Z,92730.71
2022-09-26T03:38:14.400Z,92733.73
2022-09-26T03:43:22.504Z,92725.70
2022-09-26T03:48:29.245Z,92729.37
2022-09-26T03:53:40.449Z,92732.16
2022-09-26T03:58:52.699Z,92734.86
2022-09-26T04:03:59.604Z,92737.48
2022-09-26T04:09:06.737Z,92737.32
2022-09-26T04:14:13.376Z,92733.88
2022-09-26T04:19:20.065Z,92724.95
2022-09-26T04:24:26.876Z,92715.34
2022-09-26T04:29:33.549Z,92707.64
2022-09-26T04:34:41.233Z,92704.43
2022-09-26T04:39:48.554Z,92707.28
2022-09-26T04:44:55.259Z,92715.00
2022-09-26T04:50:07.362Z,92730.03
2022-09-26T04:55:17.190Z,92736.59
2022-09-26T05:00:33.428Z,92724.75
2022-09-26T05:05:52.330Z,92722.39
2022-09-26T05:11:03.809Z,92713.48
2022-09-26T05:16:25.997Z,92711.08
2022-09-26T05:21:40.153Z,92716.95
2022-09-26T05:32:27.259Z,92731.09
2022-09-26T05:37:38.879Z,92745.77
2022-09-26T05:42:46.330Z,92744.44
2022-09-26T05:47:53.175Z,92742.28
2022-09-26T05:53:04.059Z,92744.84
2022-09-26T05:58:10.722Z,92740.30
2022-09-26T06:03:20.042Z,92740.53
2022-09-26T06:08:26.734Z,92755.27
2022-09-26T06:13:35.373Z,92746.58
2022-09-26T06:18:42.759Z,92753.30
2022-09-26T06:23:50.185Z,92762.29
2022-09-26T06:29:01.673Z,92759.64
2022-09-26T06:34:09.068Z,92771.52
2022-09-26T06:39:16.708Z,92773.52
2022-09-26T06:44:24.206Z,92781.67
2022-09-26T06:49:30.898Z,92789.90
2022-09-26T06:54:37.618Z,92787.00
2022-09-26T06:59:44.379Z,92788.27
2022-09-26T07:04:51.999Z,92792.55
2022-09-26T07:09:58.919Z,92789.81
2022-09-26T07:15:07.699Z,92787.66
2022-09-26T07:20:18.671Z,92787.64
2022-09-26T07:25:26.106Z,92778.03
2022-09-26T07:30:32.789Z,92783.66
2022-09-26T07:35:39.879Z,92783.00
2022-09-26T07:40:46.653Z,92797.09
2022-09-26T07:46:12.354Z,92800.53
2022-09-26T07:51:20.095Z,92802.52
2022-09-26T07:56:26.793Z,92805.77
2022-09-26T08:01:37.692Z,92814.67
2022-09-26T08:06:45.441Z,92820.36
2022-09-26T08:11:54.257Z,92818.95
2022-09-26T08:17:01.083Z,92815.93
2022-09-26T08:22:10.642Z,92820.52
2022-09-26T08:27:20.453Z,92827.73
2022-09-26T08:32:30.118Z,92832.75
2022-09-26T08:37:37.223Z,92830.10
2022-09-26T08:43:05.294Z,92828.73
2022-09-26T08:49:00.481Z,92839.77
2022-09-26T08:54:14.350Z,92835.16
2022-09-26T08:59:44.741Z,92834.47
2022-09-26T09:05:08.242Z,92830.09
2022-09-26T09:10:22.411Z,92827.05
2022-09-26T09:15:56.579Z,92831.27
2022-09-26T09:21:20.361Z,92825.44
2022-09-26T09:31:58.581Z,92813.37
2022-09-26T09:37:09.804Z,92803.77
2022-09-26T09:42:43.792Z,92807.31
2022-09-26T09:47:50.464Z,92807.84
2022-09-26T09:53:16.725Z,92802.26
2022-09-26T09:58:28.289Z,92798.59
2022-09-26T10:03:43.060Z,92798.08
2022-09-26T10:08:51.283Z,92788.86
2022-09-26T10:14:05.084Z,92792.25
2022-09-26T10:19:11.305Z,92794.68
2022-09-26T10:24:27.922Z,92792.66
2022-09-26T10:29:36.122Z,92800.30
2022-09-26T10:34:44.031Z,92802.26
2022-09-26T10:40:17.388Z,92799.02
2022-09-26T10:45:26.231Z,92803.52
2022-09-26T10:50:33.534Z,92802.03
2022-09-26T10:55:51.886Z,92790.75
2022-09-26T11:01:01.082Z,92783.66
2022-09-26T11:06:27.602Z,92792.87
2022-09-26T11:11:43.246Z,92799.53
2022-09-26T11:16:59.205Z,92789.41
2022-09-26T11:22:28.401Z,92783.97
2022-09-26T11:27:45.317Z,92784.17
2022-09-26T11:32:57.038Z,92776.87
2022-09-26T11:38:24.151Z,92768.64
2022-09-26T11:43:56.514Z,92759.42
2022-09-26T11:49:43.841Z,92742.84
2022-09-26T11:55:08.432Z,92744.08
2022-09-26T12:00:30.072Z,92725.52
2022-09-26T12:06:02.485Z,92721.87
2022-09-26T12:11:25.662Z,92715.88
2022-09-26T12:16:52.965Z,92707.72
2022-09-26T12:22:29.854Z,92703.07
2022-09-26T12:28:01.772Z,92700.83
2022-09-26T12:33:30.054Z,92686.66
2022-09-26T12:38:59.402Z,92686.78
2022-09-26T12:44:18.157Z,92698.58
2022-09-26T12:50:00.895Z,92695.55
2022-09-26T12:55:24.791Z,92684.06
2022-09-26T13:00:37.760Z,92686.77
2022-09-26T13:06:21.306Z,92681.23
2022-09-26T13:11:53.508Z,92685.05
2022-09-26T13:17:21.078Z,92672.42
2022-09-26T13:23:02.516Z,92668.49
2022-09-26T13:29:00.842Z,92662.50
2022-09-26T13:34:01.586Z,92666.36
2022-09-26T13:39:18.472Z,92654.55
2022-09-26T13:44:53.971Z,92653.98
2022-09-26T13:50:08.931Z,92647.03
2022-09-26T13:55:19.876Z,92652.77
2022-09-26T14:00:41.392Z,92662.70
2022-09-26T14:05:51.828Z,92654.23
2022-09-26T14:11:03.404Z,92650.30
2022-09-26T14:16:35.594Z,92630.31
2022-09-26T14:22:21.629Z,92627.39
2022-09-26T14:27:38.307Z,92634.11
2022-09-26T14:32:49.583Z,92632.58
2022-09-26T14:38:06.523Z,92632.58
2022-09-26T14:43:18.461Z,92627.77
2022-09-26T14:48:40.661Z,92630.23
2022-09-26T14:53:57.558Z,92625.82
2022-09-26T14:59:32.950Z,92621.06
2022-09-26T15:04:40.251Z,92613.77
2022-09-26T15:10:10.622Z,92619.58
2022-09-26T15:15:48.918Z,92616.89
2022-09-26T15:21:27.363Z,92603.71
2022-09-26T15:26:37.518Z,92601.19
2022-09-26T15:31:48.253Z,92580.37
2022-09-26T15:36:58.978Z,92572.05
2022-09-26T15:42:45.629Z,92578.33
2022-09-26T15:47:52.372Z,92565.71
2022-09-26T15:53:15.393Z,92567.34
2022-09-26T15:58:26.563Z,92560.91
2022-09-26T16:03:45.298Z,92570.14
2022-09-26T16:09:14.372Z,92557.81
2022-09-26T16:14:28.359Z,92552.03
2022-09-26T16:19:36.457Z,92553.01
2022-09-26T16:24:42.841Z,92561.90
2022-09-26T16:29:52.595Z,92568.02
2022-09-26T16:35:12.569Z,92565.42
2022-09-26T16:40:22.429Z,92558.33
2022-09-26T16:45:29.178Z,92551.48
2022-09-26T16:50:38.302Z,92549.48
2022-09-26T16:55:46.310Z,92548.36
2022-09-26T17:01:10.888Z,92544.20
2022-09-26T17:06:17.655Z,92535.30
2022-09-26T17:11:27.001Z,92546.63
2022-09-26T17:16:34.490Z,92554.48
2022-09-26T17:21:41.307Z,92561.64
2022-09-26T17:26:57.917Z,92560.69
2022-09-26T17:32:09.855Z,92568.63
2022-09-26T17:37:20.120Z,92574.11
2022-09-26T17:42:27.404Z,92579.78
2022-09-26T17:47:34.390Z,92572.05
2022-09-26T17:52:41.165Z,92569.34
2022-09-26T17:57:47.818Z,92572.78
2022-09-26T18:03:04.508Z,92568.48
2022-09-26T18:08:21.655Z,92572.61
2022-09-26T18:13:34.918Z,92574.08
2022-09-26T18:18:41.648Z,92571.34
2022-09-26T18:23:52.951Z,92568.28
2022-09-26T18:29:05.058Z,92560.64
2022-09-26T18:34:20.861Z,92561.02
2022-09-26T18:39:29.154Z,92559.83
2022-09-26T18:44:37.809Z,92563.89
2022-09-26T18:49:49.348Z,92564.77
2022-09-26T18:55:15.038Z,92558.84
2022-09-26T19:00:21.775Z,92565.52
2022-09-26T19:05:28.475Z,92555.98
2022-09-26T19:10:35.505Z,92561.27
2022-09-26T19:15:42.219Z,92561.05
2022-09-26T19:20:48.955Z,92568.14
2022-09-26T19:25:55.925Z,92561.25
2022-09-26T19:31:05.125Z,92564.84
2022-09-26T19:36:16.732Z,92574.72
2022-09-26T19:41:24.011Z,92576.36
2022-09-26T19:46:30.983Z,92573.31
2022-09-26T19:51:40.737Z,92567.85
2022-09-26T19:56:49.220Z,92559.33
2022-09-26T20:01:56.810Z,92558.45
2022-09-26T20:07:04.380Z,92552.18
2022-09-26T20:12:13.245Z,92544.16
2022-09-26T20:17:31.465Z,92540.45
2022-09-26T20:22:38.404Z,92541.17
2022-09-26T20:27:47.167Z,92535.16
2022-09-26T20:32:54.225Z,92524.22
2022-09-26T20:38:05.396Z,92514.91
2022-09-26T20:43:18.206Z,92509.27
2022-09-26T20:48:30.829Z,92504.20
2022-09-26T20:53:38.727Z,92499.03
2022-09-26T20:58:49.959Z,92500.24
2022-09-26T21:03:58.401Z,92489.47
2022-09-26T21:09:06.273Z,92493.35
2022-09-26T21:14:14.086Z,92483.88
2022-09-26T21:19:29.616Z,92480.42
2022-09-26T21:24:39.347Z,92472.66
2022-09-26T21:29:47.961Z,92469.94
2022-09-26T21:35:04.379Z,92461.91
2022-09-26T21:40:14.125Z,92458.76
2022-09-26T21:45:27.228Z,92444.77
2022-09-26T21:50:33.136Z,92442.05
2022-09-26T21:55:44.018Z,92430.33
2022-09-26T22:00:52.141Z,92421.36
2022-09-26T22:06:01.386Z,92408.39
2022-09-26T22:11:10.285Z,92406.81
2022-09-26T22:16:17.207Z,92401.11
2022-09-26T22:21:24.045Z,92398.80
2022-09-26T22:26:31.746Z,92398.77
2022-09-26T22:31:38.876Z,92399.27
2022-09-26T22:36:46.319Z,92382.19
2022-09-26T22:41:53.236Z,92367.11
2022-09-26T22:47:00.763Z,92360.73
2022-09-26T22:52:08.008Z,92356.74
2022-09-26T22:57:17.214Z,92350.88
2022-09-26T23:02:24.998Z,92356.59
2022-09-26T23:07:32.656Z,92362.28
2022-09-26T23:12:42.467Z,92342.03
2022-09-26T23:17:49.417Z,92335.33
2022-09-26T23:22:57.303Z,92318.00
2022-09-26T23:28:05.661Z,92322.77
2022-09-26T23:33:14.247Z,92312.16
2022-09-26T23:38:22.147Z,92305.29
2022-09-26T23:43:28.971Z,92302.17
2022-09-26T23:48:37.651Z,92285.91
2022-09-26T23:53:46.890Z,92274.22
2022-09-26T23:58:53.618Z,92272.66
